Time;durP1;ratioP1;P1;durP2;ratioP2;P2;SDS_P1;SDS_P2;PMS_P1;PMS_P2;Temp;Humidity;BMP_temperature;BMP_pressure;BME280_temperature;BME280_humidity;BME280_pressure;Samples;Min_cycle;Max_cycle;Signal;HPM_P1;HPM_P2
2023/01/03 00:02:01;;;;;;;17.35;11.75;;;24.40;49.50;;;;;;6049713;28;84322;-65
2023/01/03 00:05:01;;;;;;;16.65;11.15;;;24.40;49.60;;;;;;6063110;28;83081;-64
2023/01/03 00:08:02;;;;;;;17.02;11.88;;;24.40;49.50;;;;;;6052118;28;85738;-63
2023/01/03 00:11:02;;;;;;;15.88;10.77;;;24.40;50.30;;;;;;6075409;28;83041;-62
2023/01/03 00:14:03;;;;;;;18.23;11.05;;;24.40;49.60;;;;;;6071936;28;85578;-62
2023/01/03 00:17:03;;;;;;;15.85;10.68;;;24.30;49.70;;;;;;6073738;28;83558;-62
2023/01/03 00:20:04;;;;;;;18.35;11.18;;;24.30;49.60;;;;;;6082262;28;84073;-75
2023/01/03 00:23:04;;;;;;;15.85;10.80;;;24.30;49.50;;;;;;6076506;28;84746;-75
2023/01/03 00:26:05;;;;;;;15.23;10.45;;;24.30;49.50;;;;;;6064590;28;83137;-75
2023/01/03 00:29:05;;;;;;;16.30;9.85;;;24.30;49.50;;;;;;6079148;28;84159;-72
2023/01/03 00:32:07;;;;;;;15.10;10.50;;;24.30;49.40;;;;;;6078165;28;83460;-73
2023/01/03 00:35:07;;;;;;;15.35;9.93;;;24.30;49.50;;;;;;6074083;28;83085;-73
2023/01/03 00:38:08;;;;;;;13.30;10.15;;;24.30;49.50;;;;;;6076696;28;83362;-72
2023/01/03 00:41:08;;;;;;;14.50;10.43;;;24.30;49.50;;;;;;6074499;28;83858;-75
2023/01/03 00:44:09;;;;;;;13.98;10.32;;;24.30;49.40;;;;;;6076451;28;83806;-75
2023/01/03 00:47:09;;;;;;;14.23;9.25;;;24.30;49.50;;;;;;6079385;28;83527;-75
2023/01/03 00:50:11;;;;;;;15.05;9.98;;;24.30;49.50;;;;;;6092915;28;83210;-75
2023/01/03 00:53:12;;;;;;;14.02;9.20;;;24.20;49.40;;;;;;6076172;28;83245;-75
2023/01/03 00:56:12;;;;;;;12.77;8.98;;;24.30;49.30;;;;;;6069663;28;83739;-71
2023/01/03 00:59:13;;;;;;;17.02;10.23;;;24.20;49.20;;;;;;6068431;28;82209;-70
2023/01/03 01:02:15;;;;;;;14.57;9.70;;;24.30;49.30;;;;;;6057125;28;82798;-70
2023/01/03 01:05:15;;;;;;;12.30;8.60;;;24.30;49.30;;;;;;6058637;28;83328;-69
2023/01/03 01:08:16;;;;;;;14.82;9.20;;;24.30;49.10;;;;;;6080062;28;80903;-68
2023/01/03 01:11:16;;;;;;;14.98;9.38;;;24.30;49.20;;;;;;6069018;28;80618;-69
2023/01/03 01:14:20;;;;;;;11.95;8.73;;;24.30;49.20;;;;;;6071348;28;81056;-64
2023/01/03 01:17:21;;;;;;;10.60;8.48;;;24.30;49.30;;;;;;6058616;28;81214;-63
2023/01/03 01:20:21;;;;;;;12.05;8.45;;;24.30;49.20;;;;;;6061178;28;80441;-64
2023/01/03 01:23:22;;;;;;;14.65;9.15;;;24.30;49.20;;;;;;6074498;28;82505;-64
2023/01/03 01:26:22;;;;;;;10.75;8.02;;;24.30;49.20;;;;;;6074064;28;80598;-65
2023/01/03 01:29:23;;;;;;;11.50;8.25;;;24.30;49.20;;;;;;6090790;28;81430;-64
2023/01/03 01:32:23;;;;;;;10.35;8.45;;;24.30;49.20;;;;;;6081376;28;81029;-71
2023/01/03 01:35:24;;;;;;;10.98;8.13;;;24.30;49.20;;;;;;6065278;28;81496;-63
2023/01/03 01:38:24;;;;;;;11.73;7.28;;;24.30;49.10;;;;;;6080635;28;81815;-64
2023/01/03 01:44:44;;;;;;;10.02;7.32;;;24.20;49.00;;;;;;6064611;28;80591;-65
2023/01/03 01:47:45;;;;;;;11.60;7.90;;;24.20;49.00;;;;;;6068686;28;81989;-66
2023/01/03 01:50:45;;;;;;;10.50;7.57;;;24.20;49.00;;;;;;6071091;28;82623;-63
2023/01/03 01:53:46;;;;;;;11.02;7.80;;;24.20;49.00;;;;;;6064971;28;82273;-63
2023/01/03 01:56:46;;;;;;;10.23;7.40;;;24.20;49.10;;;;;;6065897;28;80224;-63
2023/01/03 01:59:47;;;;;;;10.45;7.88;;;24.20;48.90;;;;;;6071380;28;80660;-64
2023/01/03 02:02:48;;;;;;;10.57;8.15;;;24.20;48.70;;;;;;6070489;28;80456;-64
2023/01/03 02:05:48;;;;;;;11.57;7.93;;;24.20;48.70;;;;;;6071312;28;80934;-64
2023/01/03 02:08:49;;;;;;;10.15;7.30;;;24.20;48.70;;;;;;6076344;28;81238;-64
2023/01/03 02:11:49;;;;;;;8.80;6.78;;;24.20;48.50;;;;;;6085389;28;80833;-63
2023/01/03 02:14:50;;;;;;;10.25;7.78;;;24.20;48.50;;;;;;6071640;28;80544;-62
2023/01/03 02:17:50;;;;;;;10.73;7.78;;;24.20;48.40;;;;;;6072383;28;80848;-62
2023/01/03 02:20:51;;;;;;;12.68;7.75;;;24.10;48.30;;;;;;6071544;28;80899;-62
2023/01/03 02:23:51;;;;;;;11.48;7.63;;;24.20;48.30;;;;;;6066726;28;80848;-61
2023/01/03 02:26:52;;;;;;;13.68;7.47;;;24.10;48.30;;;;;;6063391;28;80558;-62
2023/01/03 02:29:53;;;;;;;10.77;7.72;;;24.10;48.40;;;;;;6078914;28;80353;-70
2023/01/03 02:32:54;;;;;;;11.50;7.65;;;24.10;48.30;;;;;;6066099;28;84507;-69
2023/01/03 02:35:54;;;;;;;11.25;7.93;;;24.10;48.40;;;;;;6068686;28;80392;-69
2023/01/03 02:38:55;;;;;;;11.25;8.32;;;24.10;48.40;;;;;;6068073;28;81403;-70
2023/01/03 02:42:56;;;;;;;12.82;8.23;;;24.10;48.60;;;;;;6069293;28;85194;-68
2023/01/03 02:45:16;;;;;;;10.95;7.22;;;24.10;48.40;;;;;;6068527;28;80945;-69
2023/01/03 02:48:16;;;;;;;10.43;7.80;;;24.10;48.30;;;;;;6077965;28;80429;-63
2023/01/03 02:51:17;;;;;;;9.10;7.15;;;24.10;48.30;;;;;;6080764;28;80090;-62
2023/01/03 02:54:17;;;;;;;12.60;8.60;;;24.10;48.30;;;;;;6079618;28;81063;-65
2023/01/03 02:57:18;;;;;;;10.20;7.47;;;24.10;48.30;;;;;;6087358;28;80458;-63
2023/01/03 03:00:18;;;;;;;10.90;7.40;;;24.10;48.20;;;;;;6082923;28;80861;-62
2023/01/03 03:03:19;;;;;;;11.23;8.00;;;24.10;48.30;;;;;;6078930;28;81916;-62
2023/01/03 03:06:19;;;;;;;11.77;7.30;;;24.10;48.20;;;;;;6076281;28;82833;-64
2023/01/03 03:09:20;;;;;;;11.27;7.78;;;24.10;48.10;;;;;;6068235;28;80268;-62
2023/01/03 03:15:40;;;;;;;12.07;7.43;;;24.20;48.10;;;;;;6096908;28;80681;-62
2023/01/03 03:18:40;;;;;;;10.73;7.22;;;24.10;48.10;;;;;;6082018;28;80971;-61
2023/01/03 03:25:01;;;;;;;10.30;7.53;;;24.20;48.30;;;;;;6064752;28;81748;-73
2023/01/03 03:31:21;;;;;;;10.40;7.65;;;24.20;48.20;;;;;;6102852;28;85519;-73
2023/01/03 03:34:22;;;;;;;10.73;7.43;;;24.20;48.10;;;;;;6105975;28;81674;-73
2023/01/03 03:37:22;;;;;;;11.60;7.18;;;24.20;48.00;;;;;;6107433;28;80446;-74
2023/01/03 03:47:01;;;;;;;10.52;7.07;;;24.10;47.80;;;;;;6104658;28;80216;-67
2023/01/03 03:50:01;;;;;;;7.97;6.10;;;24.10;48.10;;;;;;6098158;28;81102;-69
2023/01/03 03:53:02;;;;;;;11.60;7.03;;;24.10;47.80;;;;;;6071890;28;80725;-70
2023/01/03 03:56:02;;;;;;;9.43;6.82;;;24.10;47.80;;;;;;6067381;28;80329;-68
2023/01/03 03:59:03;;;;;;;10.70;6.70;;;24.10;47.80;;;;;;6068574;28;80306;-69
2023/01/03 04:02:04;;;;;;;8.85;6.30;;;24.10;47.80;;;;;;6073435;28;80760;-66
2023/01/03 04:05:04;;;;;;;10.02;6.75;;;24.10;47.80;;;;;;6068562;28;81791;-67
2023/01/03 04:08:05;;;;;;;8.88;6.40;;;24.10;47.80;;;;;;6083430;28;81803;-68
2023/01/03 04:11:06;;;;;;;8.48;5.97;;;24.10;47.80;;;;;;6069408;28;80972;-69
2023/01/03 04:14:06;;;;;;;8.88;6.50;;;24.10;47.80;;;;;;6069127;28;81062;-68
2023/01/03 04:17:07;;;;;;;10.30;6.32;;;24.10;47.70;;;;;;6072800;28;80242;-69
2023/01/03 04:20:07;;;;;;;8.82;6.47;;;24.10;47.80;;;;;;6076704;28;85773;-69
2023/01/03 04:23:08;;;;;;;10.00;6.60;;;24.10;47.80;;;;;;6081608;28;80715;-70
2023/01/03 04:26:08;;;;;;;7.38;6.18;;;24.10;47.80;;;;;;6101193;28;80741;-68
2023/01/03 04:29:09;;;;;;;9.75;6.13;;;24.10;47.80;;;;;;6070003;28;80983;-68
2023/01/03 04:32:10;;;;;;;8.50;6.20;;;24.10;47.50;;;;;;6068895;28;80471;-69
2023/01/03 04:35:13;;;;;;;9.13;5.95;;;24.20;47.40;;;;;;6073375;28;83169;-67
2023/01/03 04:38:13;;;;;;;8.25;5.97;;;24.20;47.40;;;;;;6068364;28;80457;-64
2023/01/03 04:41:14;;;;;;;12.65;6.18;;;24.20;47.40;;;;;;6062031;28;80553;-61
2023/01/03 04:44:15;;;;;;;8.23;5.43;;;24.30;47.80;;;;;;6062061;28;84437;-61
2023/01/03 04:47:15;;;;;;;7.18;5.55;;;24.30;48.00;;;;;;6059721;28;82392;-62
2023/01/03 04:50:16;;;;;;;7.55;5.35;;;24.30;47.70;;;;;;6062693;28;80916;-61
2023/01/03 04:53:16;;;;;;;7.07;5.38;;;24.40;47.50;;;;;;6071354;28;80509;-60
2023/01/03 04:56:17;;;;;;;9.40;4.82;;;24.40;47.70;;;;;;6062480;28;83955;-60
2023/01/03 04:59:17;;;;;;;9.82;5.82;;;24.40;47.60;;;;;;6074690;28;80943;-65
2023/01/03 05:02:18;;;;;;;11.40;5.72;;;24.40;47.80;;;;;;6084926;28;80963;-65
2023/01/03 05:05:18;;;;;;;7.70;5.00;;;24.40;48.20;;;;;;6081160;28;80558;-64
2023/01/03 05:08:19;;;;;;;5.93;4.63;;;24.50;48.00;;;;;;6094764;28;81509;-63
2023/01/03 05:11:19;;;;;;;9.52;5.30;;;24.50;47.80;;;;;;6086144;28;80770;-60
2023/01/03 05:14:20;;;;;;;6.65;4.40;;;24.50;48.30;;;;;;6080589;28;80820;-63
2023/01/03 05:17:20;;;;;;;7.53;4.65;;;24.60;47.40;;;;;;6076848;28;82778;-62
2023/01/03 05:26:59;;;;;;;8.10;4.72;;;24.50;47.70;;;;;;6093439;28;81961;-63
2023/01/03 05:30:00;;;;;;;7.13;4.60;;;24.60;47.50;;;;;;6090336;28;85873;-65
2023/01/03 05:33:00;;;;;;;6.57;4.90;;;24.60;47.30;;;;;;6080208;28;80809;-62
2023/01/03 05:36:01;;;;;;;7.82;4.30;;;24.60;47.20;;;;;;6090832;28;85495;-62
2023/01/03 05:39:01;;;;;;;6.10;4.60;;;24.60;47.20;;;;;;6099610;28;80722;-61
2023/01/03 05:42:02;;;;;;;8.25;4.95;;;24.50;47.40;;;;;;6101596;28;80765;-62
2023/01/03 05:45:03;;;;;;;8.48;5.35;;;24.50;47.70;;;;;;6086234;28;81506;-62
2023/01/03 05:48:04;;;;;;;8.60;4.85;;;24.50;47.70;;;;;;6093967;28;80849;-61
2023/01/03 05:51:05;;;;;;;8.63;4.38;;;24.50;47.40;;;;;;6080055;28;83478;-67
2023/01/03 05:54:06;;;;;;;7.22;4.82;;;24.50;48.40;;;;;;6081153;28;83841;-64
2023/01/03 05:57:07;;;;;;;6.90;4.93;;;24.50;47.90;;;;;;6098178;28;80198;-66
2023/01/03 06:00:07;;;;;;;8.65;4.80;;;24.50;48.30;;;;;;6095430;28;83671;-64
2023/01/03 06:03:08;;;;;;;8.88;5.22;;;24.50;48.50;;;;;;6091490;28;80921;-63
2023/01/03 06:06:08;;;;;;;7.45;5.38;;;24.50;48.80;;;;;;6096963;28;82213;-63
2023/01/03 06:09:09;;;;;;;7.30;4.63;;;24.60;49.00;;;;;;6098015;28;85204;-66
2023/01/03 06:12:09;;;;;;;7.45;4.60;;;24.60;48.90;;;;;;6092540;28;81313;-65
2023/01/03 06:15:10;;;;;;;6.57;4.50;;;24.60;49.00;;;;;;6098594;28;80676;-64
2023/01/03 06:18:10;;;;;;;7.55;4.53;;;24.50;49.00;;;;;;6075507;28;81177;-64
2023/01/03 06:21:11;;;;;;;6.03;4.55;;;24.50;49.00;;;;;;6070913;28;80822;-65
2023/01/03 06:24:11;;;;;;;5.88;4.25;;;24.50;49.00;;;;;;6061642;28;82605;-65
2023/01/03 06:27:12;;;;;;;6.88;4.57;;;24.50;49.30;;;;;;6053857;28;81062;-61
2023/01/03 06:30:14;;;;;;;7.22;4.45;;;24.50;49.00;;;;;;6056907;28;81337;-62
2023/01/03 06:33:15;;;;;;;8.30;5.35;;;24.50;48.90;;;;;;6065101;28;81577;-66
2023/01/03 06:36:15;;;;;;;8.40;4.95;;;24.40;49.00;;;;;;6057927;28;80389;-63
2023/01/03 06:39:16;;;;;;;9.30;5.30;;;24.40;48.80;;;;;;6062261;28;81182;-64
2023/01/03 06:55:33;;;;;;;6.50;5.05;;;24.30;48.60;;;;;;6087585;28;85095;-60
2023/01/03 06:58:34;;;;;;;7.90;5.05;;;24.30;48.40;;;;;;6076555;28;80645;-61
2023/01/03 07:01:35;;;;;;;9.25;5.20;;;24.20;48.30;;;;;;6068833;28;81035;-60
2023/01/03 07:04:35;;;;;;;7.82;5.30;;;24.20;48.10;;;;;;6073335;28;80361;-64
2023/01/03 07:07:36;;;;;;;9.73;6.07;;;24.20;48.10;;;;;;6062460;28;85824;-65
2023/01/03 07:10:36;;;;;;;9.98;5.78;;;24.20;48.00;;;;;;6064571;28;81492;-66
2023/01/03 07:16:56;;;;;;;8.27;5.50;;;24.10;48.00;;;;;;6067968;28;80344;-66
2023/01/03 07:19:57;;;;;;;8.80;5.57;;;24.10;47.80;;;;;;6076813;28;82689;-66
2023/01/03 07:22:57;;;;;;;8.18;5.85;;;24.10;47.80;;;;;;6060855;28;80950;-66
2023/01/03 07:25:58;;;;;;;10.80;6.43;;;24.10;47.80;;;;;;6063877;28;81559;-66
2023/01/03 07:28:59;;;;;;;8.68;6.03;;;24.10;47.80;;;;;;6058751;28;81196;-67
2023/01/03 07:32:00;;;;;;;7.82;5.97;;;24.10;48.00;;;;;;6058136;28;80417;-66
2023/01/03 07:35:01;;;;;;;9.10;5.90;;;24.10;47.90;;;;;;6062539;28;82087;-67
2023/01/03 07:38:01;;;;;;;10.65;6.05;;;24.10;47.90;;;;;;6074465;28;82018;-66
2023/01/03 07:41:02;;;;;;;8.43;5.70;;;24.10;48.00;;;;;;6074377;28;80572;-63
2023/01/03 07:44:02;;;;;;;9.35;5.63;;;24.10;48.00;;;;;;6089789;28;80577;-62
2023/01/03 07:47:03;;;;;;;10.80;5.90;;;24.10;47.90;;;;;;6090103;28;80608;-63
2023/01/03 07:50:03;;;;;;;9.15;5.97;;;24.10;47.90;;;;;;6073836;28;86254;-61
2023/01/03 07:53:04;;;;;;;9.23;6.28;;;24.10;48.00;;;;;;6062296;28;85233;-62
2023/01/03 07:56:04;;;;;;;7.90;5.53;;;24.10;48.10;;;;;;6078824;28;80697;-63
2023/01/03 07:59:05;;;;;;;7.78;5.68;;;24.10;48.20;;;;;;6078485;28;82045;-60
2023/01/03 08:02:05;;;;;;;11.10;6.28;;;24.10;48.10;;;;;;6076222;28;81759;-61
2023/01/03 08:05:06;;;;;;;8.88;6.35;;;24.00;48.00;;;;;;6067147;28;80197;-62
2023/01/03 08:08:07;;;;;;;9.07;5.68;;;24.10;48.10;;;;;;6067209;28;80974;-61
2023/01/03 08:14:34;;;;;;;12.57;6.95;;;24.10;48.50;;;;;;6072185;28;81167;-61
2023/01/03 08:17:35;;;;;;;12.45;7.15;;;24.10;48.60;;;;;;6069458;28;80198;-61
2023/01/03 08:20:36;;;;;;;12.30;7.72;;;24.00;48.60;;;;;;6052383;28;81943;-62
2023/01/03 08:23:36;;;;;;;11.48;7.50;;;24.00;48.50;;;;;;6078557;28;80843;-61
2023/01/03 08:26:37;;;;;;;14.05;7.95;;;24.00;48.50;;;;;;6069290;28;82130;-61
2023/01/03 08:29:37;;;;;;;10.50;7.32;;;24.00;48.60;;;;;;6079937;28;81213;-61
2023/01/03 08:32:38;;;;;;;10.85;7.47;;;24.00;48.70;;;;;;6082416;28;80746;-60
2023/01/03 08:35:38;;;;;;;10.73;7.00;;;24.00;48.50;;;;;;6088677;28;81949;-64
2023/01/03 08:38:39;;;;;;;10.20;7.03;;;24.10;48.50;;;;;;6067928;28;85201;-64
2023/01/03 08:41:39;;;;;;;10.52;6.93;;;24.00;48.50;;;;;;6075865;28;83349;-68
2023/01/03 08:44:40;;;;;;;10.55;7.45;;;24.10;48.30;;;;;;6092567;28;80936;-66
2023/01/03 08:47:40;;;;;;;11.48;6.25;;;24.10;48.40;;;;;;6089471;28;81016;-66
2023/01/03 08:50:41;;;;;;;10.32;7.03;;;24.10;48.30;;;;;;6098865;28;84923;-64
2023/01/03 08:53:42;;;;;;;10.65;7.20;;;24.10;48.30;;;;;;6095471;28;83800;-62
2023/01/03 08:56:42;;;;;;;10.60;7.35;;;24.00;48.20;;;;;;6087310;28;80576;-62
2023/01/03 08:59:43;;;;;;;11.32;7.05;;;24.10;48.30;;;;;;6096718;28;81415;-62
2023/01/03 09:02:43;;;;;;;10.50;6.97;;;24.10;48.20;;;;;;6073236;28;81695;-62
2023/01/03 09:05:44;;;;;;;11.25;7.13;;;24.10;48.30;;;;;;6088633;28;81782;-60
2023/01/03 09:08:44;;;;;;;11.95;6.57;;;24.10;48.30;;;;;;6097923;28;82794;-61
2023/01/03 09:11:45;;;;;;;9.80;7.22;;;24.10;48.30;;;;;;6074508;28;84728;-62
2023/01/03 09:14:45;;;;;;;9.95;6.60;;;24.20;48.40;;;;;;6079895;28;81208;-62
2023/01/03 09:17:48;;;;;;;12.35;6.78;;;24.30;47.80;;;;;;6081697;28;81987;-62
2023/01/03 09:20:48;;;;;;;8.80;6.50;;;24.50;47.40;;;;;;6078412;28;80802;-62
2023/01/03 09:23:49;;;;;;;11.23;7.20;;;24.70;47.30;;;;;;6082547;28;81586;-61
2023/01/03 09:26:49;;;;;;;10.05;6.82;;;24.80;47.30;;;;;;6083562;28;80845;-61
2023/01/03 09:29:51;;;;;;;13.73;7.22;;;24.90;47.10;;;;;;6079532;28;83792;-61
2023/01/03 09:32:52;;;;;;;10.25;6.82;;;24.90;47.20;;;;;;6073749;28;83353;-65
2023/01/03 09:35:53;;;;;;;9.55;6.53;;;25.00;47.00;;;;;;6070832;28;81300;-65
2023/01/03 09:38:54;;;;;;;12.95;7.07;;;25.10;46.90;;;;;;6084724;28;81599;-66
2023/01/03 09:45:14;;;;;;;9.05;6.07;;;25.30;47.20;;;;;;6070938;28;81947;-66
2023/01/03 09:48:14;;;;;;;8.88;6.30;;;25.40;47.20;;;;;;6076973;28;81238;-61
2023/01/03 10:04:32;;;;;;;10.68;6.60;;;25.60;47.20;;;;;;6096425;28;85304;-61
2023/01/03 10:07:32;;;;;;;10.05;6.70;;;25.60;47.10;;;;;;6076308;28;80624;-62
2023/01/03 10:10:33;;;;;;;8.63;6.35;;;25.50;47.10;;;;;;6097932;28;80575;-62
2023/01/03 10:13:33;;;;;;;11.05;6.47;;;25.40;47.30;;;;;;6091684;28;81008;-63
2023/01/03 10:16:34;;;;;;;8.70;6.20;;;25.30;47.60;;;;;;6101782;28;81462;-62
2023/01/03 10:19:34;;;;;;;10.13;6.40;;;25.30;47.10;;;;;;6087027;28;83480;-63
2023/01/03 10:22:35;;;;;;;12.52;6.50;;;25.20;47.20;;;;;;6095670;28;80630;-62
2023/01/03 10:25:36;;;;;;;9.10;6.05;;;25.20;47.60;;;;;;6095656;28;84013;-63
2023/01/03 10:28:36;;;;;;;7.38;5.65;;;25.30;47.50;;;;;;6091209;28;80292;-63
2023/01/03 10:31:37;;;;;;;9.68;5.75;;;25.50;47.50;;;;;;6088267;28;80907;-63
2023/01/03 10:34:37;;;;;;;10.88;6.13;;;25.60;47.40;;;;;;6068494;28;85575;-62
2023/01/03 10:37:38;;;;;;;9.77;6.00;;;25.80;47.20;;;;;;6064082;28;82209;-63
2023/01/03 10:40:38;;;;;;;8.20;5.25;;;25.90;47.20;;;;;;6067540;28;80311;-63
2023/01/03 10:43:39;;;;;;;8.48;5.35;;;25.90;46.90;;;;;;6078703;28;80416;-63
2023/01/03 10:46:39;;;;;;;7.05;5.05;;;26.10;47.00;;;;;;6066430;28;85344;-64
2023/01/03 10:49:40;;;;;;;8.38;6.03;;;26.00;46.90;;;;;;6066418;28;80862;-64
2023/01/03 10:52:41;;;;;;;8.82;5.97;;;26.00;46.90;;;;;;6080067;28;80275;-61
2023/01/03 10:55:41;;;;;;;9.48;5.82;;;26.00;47.10;;;;;;6077723;28;81343;-64
2023/01/03 10:58:42;;;;;;;9.07;5.10;;;26.00;47.20;;;;;;6071332;28;82623;-64
2023/01/03 11:01:42;;;;;;;7.88;5.05;;;26.00;47.00;;;;;;6067652;28;80873;-63
2023/01/03 11:04:43;;;;;;;10.52;5.53;;;25.90;47.30;;;;;;6056920;28;81462;-64
2023/01/03 11:07:43;;;;;;;7.85;5.05;;;25.90;47.60;;;;;;6066468;28;82290;-65
2023/01/03 11:10:44;;;;;;;6.65;5.10;;;25.80;47.80;;;;;;6069780;28;80782;-62
2023/01/03 11:13:44;;;;;;;7.97;5.38;;;25.70;48.00;;;;;;6066909;28;80513;-63
2023/01/03 11:16:45;;;;;;;6.43;4.68;;;25.60;48.20;;;;;;6072243;28;80913;-63
2023/01/03 11:19:45;;;;;;;7.00;4.72;;;25.50;48.40;;;;;;6071080;28;81059;-62
2023/01/03 11:22:46;;;;;;;7.57;5.22;;;25.50;49.30;;;;;;6060086;28;81162;-63
2023/01/03 11:25:46;;;;;;;9.13;5.18;;;25.50;49.00;;;;;;6064728;28;80950;-61
2023/01/03 11:28:47;;;;;;;6.65;4.82;;;25.40;49.00;;;;;;6076227;28;82003;-62
2023/01/03 11:31:47;;;;;;;7.82;4.82;;;25.40;49.10;;;;;;6086431;28;80507;-62
2023/01/03 11:34:48;;;;;;;6.65;4.35;;;25.30;49.20;;;;;;6065959;28;82766;-63
2023/01/03 11:37:48;;;;;;;5.47;4.50;;;25.30;49.50;;;;;;6086942;28;80538;-62
2023/01/03 11:40:49;;;;;;;6.70;4.30;;;25.20;49.50;;;;;;6070108;28;80880;-67
2023/01/03 11:43:49;;;;;;;6.28;4.72;;;25.20;49.80;;;;;;6056377;28;81379;-68
2023/01/03 11:46:50;;;;;;;6.82;5.00;;;25.10;49.40;;;;;;6081303;28;82741;-67
2023/01/03 11:49:50;;;;;;;7.45;4.75;;;25.10;49.30;;;;;;6101876;28;80399;-67
2023/01/03 11:52:51;;;;;;;7.38;5.57;;;25.10;49.40;;;;;;6101996;28;81250;-66
2023/01/03 11:55:51;;;;;;;8.57;4.75;;;25.10;49.10;;;;;;6100920;28;81711;-65
2023/01/03 11:58:52;;;;;;;7.22;5.00;;;25.10;49.10;;;;;;6116109;28;80582;-63
2023/01/03 12:01:52;;;;;;;7.90;4.68;;;25.10;49.00;;;;;;6106514;28;80139;-63
2023/01/03 12:04:54;;;;;;;7.32;4.68;;;25.00;49.00;;;;;;6100283;28;81815;-63
2023/01/03 12:07:55;;;;;;;7.93;4.68;;;25.00;49.00;;;;;;6100707;28;81221;-64
2023/01/03 12:10:55;;;;;;;7.05;4.93;;;24.90;48.90;;;;;;6099774;28;82040;-61
2023/01/03 12:13:56;;;;;;;6.80;4.57;;;24.90;49.00;;;;;;6102595;28;80807;-64
2023/01/03 12:16:56;;;;;;;5.43;3.85;;;24.90;48.90;;;;;;6101118;28;80916;-64
2023/01/03 12:19:57;;;;;;;10.07;4.68;;;24.90;48.90;;;;;;6099773;28;81878;-66
2023/01/03 12:22:57;;;;;;;6.63;4.63;;;24.90;48.90;;;;;;6101038;28;81176;-64
2023/01/03 12:25:58;;;;;;;10.57;5.05;;;24.90;48.90;;;;;;6098521;28;80589;-64
2023/01/03 12:28:58;;;;;;;6.53;4.75;;;24.90;48.80;;;;;;6087041;28;80854;-63
2023/01/03 12:31:59;;;;;;;11.27;5.00;;;25.00;48.80;;;;;;6100815;28;81427;-64
2023/01/03 12:34:59;;;;;;;6.57;4.70;;;25.10;48.40;;;;;;6093727;28;83161;-62
2023/01/03 12:38:00;;;;;;;9.88;4.60;;;25.20;48.10;;;;;;6102575;28;80901;-61
2023/01/03 12:41:00;;;;;;;9.90;4.65;;;25.30;48.10;;;;;;6106743;28;80623;-62
2023/01/03 12:44:01;;;;;;;7.70;4.57;;;25.50;48.00;;;;;;6106589;28;81726;-62
2023/01/03 12:47:01;;;;;;;10.50;5.45;;;25.70;47.60;;;;;;6103841;28;80598;-62
2023/01/03 12:50:02;;;;;;;6.35;4.53;;;25.70;47.40;;;;;;6104623;28;82118;-63
2023/01/03 12:53:02;;;;;;;7.20;4.75;;;25.70;47.30;;;;;;6102925;28;80439;-63
2023/01/03 12:56:03;;;;;;;9.85;5.35;;;25.70;47.60;;;;;;6104617;28;82489;-62
2023/01/03 12:59:03;;;;;;;8.68;5.10;;;25.70;48.10;;;;;;6091622;28;80519;-61
2023/01/03 13:02:04;;;;;;;8.52;5.20;;;25.70;48.00;;;;;;6092824;28;81618;-60
2023/01/03 13:05:07;;;;;;;12.25;5.72;;;25.60;47.60;;;;;;6092578;28;82305;-60
2023/01/03 13:08:07;;;;;;;11.23;5.50;;;25.60;47.70;;;;;;6086277;28;80772;-62
2023/01/03 13:11:08;;;;;;;10.90;5.55;;;25.50;47.90;;;;;;6086914;28;85313;-61
2023/01/03 13:14:08;;;;;;;10.23;6.00;;;25.50;47.90;;;;;;6091898;28;80691;-61
2023/01/03 13:17:09;;;;;;;10.43;6.00;;;25.50;48.20;;;;;;6089071;28;80928;-61
2023/01/03 13:20:09;;;;;;;10.60;6.28;;;25.50;49.10;;;;;;6097729;28;82398;-63
2023/01/03 13:23:10;;;;;;;12.68;6.72;;;25.50;49.10;;;;;;6089622;28;81474;-63
2023/01/03 13:26:11;;;;;;;14.80;6.97;;;25.50;46.60;;;;;;6069618;28;81243;-64
2023/01/03 13:29:11;;;;;;;10.82;6.32;;;25.40;48.20;;;;;;6075866;28;81519;-63
2023/01/03 13:32:12;;;;;;;11.45;6.15;;;25.30;47.80;;;;;;6090559;28;81450;-61
2023/01/03 13:35:12;;;;;;;10.52;6.00;;;25.30;47.70;;;;;;6099905;28;80354;-61
2023/01/03 13:38:13;;;;;;;14.15;6.28;;;25.30;47.70;;;;;;6093161;28;81179;-62
2023/01/03 13:41:13;;;;;;;10.25;5.32;;;25.30;47.80;;;;;;6099874;28;81595;-62
2023/01/03 13:44:14;;;;;;;10.73;5.68;;;25.30;48.00;;;;;;6105117;28;85668;-64
2023/01/03 13:47:14;;;;;;;8.60;4.97;;;25.20;47.80;;;;;;6097943;28;81351;-63
2023/01/03 13:50:15;;;;;;;8.90;5.00;;;25.20;48.00;;;;;;6090105;28;85859;-64
2023/01/03 13:53:15;;;;;;;8.88;5.32;;;25.10;48.50;;;;;;6097704;28;82118;-63
2023/01/03 13:56:16;;;;;;;5.40;3.97;;;25.10;48.80;;;;;;6097548;28;81125;-61
2023/01/03 13:59:16;;;;;;;8.88;5.15;;;25.00;48.50;;;;;;6088996;28;83945;-62
2023/01/03 14:02:17;;;;;;;8.55;4.72;;;25.00;48.80;;;;;;6090137;28;80539;-62
2023/01/03 14:05:19;;;;;;;6.35;4.65;;;25.00;48.80;;;;;;6081399;28;84706;-64
2023/01/03 14:08:20;;;;;;;10.50;4.63;;;24.90;48.60;;;;;;6089217;28;81648;-60
2023/01/03 14:11:20;;;;;;;9.23;4.82;;;24.90;48.60;;;;;;6092021;28;80987;-65
2023/01/03 14:14:21;;;;;;;6.63;4.40;;;24.90;48.60;;;;;;6082099;28;80639;-67
2023/01/03 14:17:22;;;;;;;6.70;4.50;;;24.90;48.60;;;;;;6065810;28;84154;-65
2023/01/03 14:20:22;;;;;;;9.18;4.63;;;24.90;48.70;;;;;;6080479;28;83491;-70
2023/01/03 14:23:23;;;;;;;6.45;3.97;;;24.80;49.20;;;;;;6080107;28;82775;-69
2023/01/03 14:26:23;;;;;;;10.02;4.63;;;24.80;48.80;;;;;;6084062;28;85536;-62
2023/01/03 14:29:24;;;;;;;10.07;4.65;;;24.80;48.70;;;;;;6084758;28;85027;-62
2023/01/03 14:32:24;;;;;;;8.45;4.60;;;24.80;49.10;;;;;;6088768;28;81621;-66
2023/01/03 14:35:25;;;;;;;9.30;4.57;;;24.80;49.00;;;;;;6086386;28;81386;-67
2023/01/03 14:38:25;;;;;;;12.40;5.57;;;24.80;49.00;;;;;;6086234;28;80832;-67
2023/01/03 14:41:26;;;;;;;8.48;4.95;;;24.80;49.00;;;;;;6074663;28;84686;-64
2023/01/03 14:44:28;;;;;;;8.82;5.15;;;24.70;49.10;;;;;;6075277;28;85671;-65
2023/01/03 14:47:28;;;;;;;8.23;4.38;;;24.70;49.20;;;;;;6082637;28;80633;-67
2023/01/03 14:50:29;;;;;;;8.10;4.97;;;24.70;49.20;;;;;;6085099;28;85417;-66
2023/01/03 14:53:29;;;;;;;31.83;9.07;;;24.70;49.20;;;;;;6091159;28;82950;-64
2023/01/03 14:56:30;;;;;;;30.90;8.88;;;24.70;49.40;;;;;;6092229;28;80561;-64
2023/01/03 14:59:31;;;;;;;40.47;11.80;;;24.70;49.40;;;;;;6089598;28;82440;-65
2023/01/03 15:02:31;;;;;;;61.03;20.83;;;24.70;49.50;;;;;;6090805;28;85023;-65
2023/01/03 15:05:32;;;;;;;44.60;18.23;;;24.70;49.60;;;;;;6082458;28;84539;-66
2023/01/03 15:08:33;;;;;;;52.60;22.15;;;24.70;49.60;;;;;;6113041;28;84264;-65
2023/01/03 15:11:33;;;;;;;68.53;23.42;;;24.70;49.80;;;;;;6087694;28;86093;-64
2023/01/03 15:14:34;;;;;;;77.47;25.52;;;24.70;49.80;;;;;;6077377;28;86135;-63
2023/01/03 15:17:35;;;;;;;66.07;23.90;;;24.70;50.40;;;;;;6085093;28;85532;-64
2023/01/03 15:20:35;;;;;;;64.32;25.40;;;24.70;50.20;;;;;;6070554;28;84328;-65
2023/01/03 15:23:36;;;;;;;57.10;24.58;;;24.70;50.20;;;;;;6081647;28;86663;-68
2023/01/03 15:26:37;;;;;;;68.05;25.08;;;24.70;50.30;;;;;;6103636;28;86254;-67
2023/01/03 15:29:37;;;;;;;58.38;24.55;;;24.70;50.50;;;;;;6087071;28;84837;-68
2023/01/03 15:32:38;;;;;;;64.03;23.42;;;24.70;50.30;;;;;;6081989;28;86515;-69
2023/01/03 15:35:38;;;;;;;61.78;23.13;;;24.80;50.10;;;;;;6078966;28;84446;-67
2023/01/03 15:38:39;;;;;;;69.57;24.70;;;24.80;50.10;;;;;;6059229;28;84493;-70
2023/01/03 15:44:59;;;;;;;56.15;23.65;;;24.80;50.20;;;;;;6080635;28;86454;-66
2023/01/03 15:48:00;;;;;;;53.65;23.60;;;24.80;50.30;;;;;;6088515;28;86205;-67
2023/01/03 15:51:00;;;;;;;54.75;22.02;;;24.80;50.00;;;;;;6082427;28;84919;-69
2023/01/03 15:54:01;;;;;;;54.80;21.63;;;24.70;50.10;;;;;;6073628;28;83761;-69
2023/01/03 15:57:01;;;;;;;54.75;23.15;;;24.70;49.80;;;;;;6075034;28;83288;-60
2023/01/03 16:00:02;;;;;;;47.92;19.90;;;24.70;49.70;;;;;;6075101;28;82987;-60
2023/01/03 16:03:05;;;;;;;56.13;20.95;;;24.70;49.60;;;;;;6066326;28;83707;-60
2023/01/03 16:06:05;;;;;;;46.83;19.95;;;24.70;49.50;;;;;;6067352;28;84822;-61
2023/01/03 16:09:06;;;;;;;48.90;19.77;;;24.60;49.30;;;;;;6075008;28;82974;-62
2023/01/03 16:12:07;;;;;;;40.40;18.48;;;24.60;49.20;;;;;;6075763;28;82891;-63
2023/01/03 16:15:08;;;;;;;35.42;16.95;;;24.60;49.10;;;;;;6078452;28;83927;-65
2023/01/03 16:18:08;;;;;;;36.63;17.45;;;24.60;49.00;;;;;;6093877;28;83382;-62
2023/01/03 16:21:09;;;;;;;37.10;16.35;;;24.60;49.10;;;;;;6075721;28;83211;-69
2023/01/03 16:24:09;;;;;;;45.72;16.88;;;24.60;49.10;;;;;;6071541;28;83483;-62
2023/01/03 16:27:10;;;;;;;41.20;16.50;;;24.60;49.10;;;;;;6070315;28;89860;-66
2023/01/03 16:30:10;;;;;;;41.22;16.40;;;24.60;49.10;;;;;;6044569;28;83270;-72
2023/01/03 16:33:11;;;;;;;34.53;15.98;;;24.60;49.40;;;;;;6043099;28;83622;-63
2023/01/03 16:36:12;;;;;;;34.38;14.52;;;24.60;49.70;;;;;;6057880;28;83172;-66
2023/01/03 16:39:12;;;;;;;30.95;15.23;;;24.60;50.00;;;;;;6043382;28;84168;-63